createdAt,value
2023-06-19T00:00:13.331Z,177.21
2023-06-19T00:01:13.415Z,178.73
2023-06-19T00:02:13.494Z,178.45
2023-06-19T00:03:13.565Z,179.94
2023-06-19T00:04:13.568Z,176.74
2023-06-19T00:05:13.626Z,178.47
2023-06-19T00:06:13.717Z,177.46
2023-06-19T00:07:13.697Z,175.11
2023-06-19T00:08:13.774Z,178.45
2023-06-19T00:09:13.761Z,177.26
2023-06-19T00:10:13.813Z,178.99
2023-06-19T00:11:13.843Z,179.55
2023-06-19T00:12:13.967Z,180.38
2023-06-19T00:13:13.992Z,178.17
2023-06-19T00:14:14.053Z,176.98
2023-06-19T00:15:14.159Z,174.84
2023-06-19T00:16:14.179Z,178.04
2023-06-19T00:17:14.251Z,174.55
2023-06-19T00:18:14.303Z,178.28
2023-06-19T00:19:14.307Z,176.42
2023-06-19T00:20:14.404Z,179.83
2023-06-19T00:21:14.462Z,177.48
2023-06-19T00:22:14.578Z,176.62
2023-06-19T00:23:14.523Z,177.87
2023-06-19T00:24:14.649Z,178.35
2023-06-19T00:25:14.684Z,176.09
2023-06-19T00:26:14.690Z,175.69
2023-06-19T00:27:14.777Z,176.73
2023-06-19T00:28:14.835Z,176.01
2023-06-19T00:29:14.886Z,179.72
2023-06-19T00:30:14.933Z,177.07
2023-06-19T00:31:15.021Z,173.49
2023-06-19T00:32:15.012Z,176.92
2023-06-19T00:33:15.097Z,176.20
2023-06-19T00:34:15.148Z,175.75
2023-06-19T00:35:15.219Z,172.60
2023-06-19T00:36:15.252Z,176.59
2023-06-19T00:37:15.283Z,175.74
2023-06-19T00:38:15.411Z,176.76
2023-06-19T00:39:15.361Z,176.34
2023-06-19T00:40:15.446Z,175.71
2023-06-19T00:41:15.557Z,176.92
2023-06-19T00:42:15.581Z,174.99
2023-06-19T00:43:15.597Z,175.77
2023-06-19T00:44:15.681Z,180.42
2023-06-19T00:45:15.744Z,174.19
2023-06-19T00:46:15.817Z,174.82
2023-06-19T00:47:15.810Z,175.77
2023-06-19T00:48:15.876Z,176.67
2023-06-19T00:49:15.936Z,174.63
2023-06-19T00:50:15.982Z,172.63
2023-06-19T00:51:16.088Z,173.61
2023-06-19T00:52:16.042Z,175.67
2023-06-19T00:53:16.165Z,177.23
2023-06-19T00:54:16.163Z,175.97
2023-06-19T00:55:16.227Z,175.35
2023-06-19T00:56:16.284Z,173.91
2023-06-19T00:57:16.293Z,173.87
2023-06-19T00:58:16.308Z,176.00
2023-06-19T00:59:16.353Z,174.93
2023-06-19T01:00:16.418Z,174.67
2023-06-19T01:01:16.508Z,176.57
2023-06-19T01:02:16.560Z,176.11
2023-06-19T01:03:18.882Z,171.82
2023-06-19T01:04:16.970Z,171.80
2023-06-19T01:05:16.754Z,173.29
2023-06-19T01:06:16.810Z,175.28
2023-06-19T01:07:16.863Z,174.43
2023-06-19T01:08:16.821Z,175.34
2023-06-19T01:09:17.010Z,175.66
2023-06-19T01:10:16.939Z,176.02
2023-06-19T01:11:26.026Z,171.88
2023-06-19T01:12:17.970Z,172.12
2023-06-19T01:13:16.966Z,172.40
2023-06-19T01:14:16.974Z,173.96
2023-06-19T01:15:16.921Z,175.00
2023-06-19T01:16:16.958Z,172.95
2023-06-19T01:17:16.971Z,173.04
2023-06-19T01:18:16.887Z,174.75
2023-06-19T01:19:17.057Z,171.90
2023-06-19T01:20:16.903Z,174.36
2023-06-19T01:21:16.912Z,174.00
2023-06-19T01:22:16.874Z,175.80
2023-06-19T01:23:16.937Z,173.51
2023-06-19T01:24:16.976Z,171.57
2023-06-19T01:25:16.947Z,173.59
2023-06-19T01:26:16.974Z,173.65
2023-06-19T01:27:16.972Z,171.14
2023-06-19T01:28:16.989Z,175.83
2023-06-19T01:29:17.004Z,173.01
2023-06-19T01:30:17.085Z,176.42
2023-06-19T01:31:17.060Z,174.42
2023-06-19T01:32:17.104Z,174.35
2023-06-19T01:33:17.107Z,171.09
2023-06-19T01:34:17.124Z,173.26
2023-06-19T01:35:17.120Z,171.94
2023-06-19T01:36:17.113Z,172.07
2023-06-19T01:37:17.168Z,169.23
2023-06-19T01:38:17.142Z,173.49
2023-06-19T01:39:17.199Z,172.46
2023-06-19T01:40:17.156Z,173.77
2023-06-19T01:41:17.206Z,172.62
2023-06-19T01:42:17.219Z,177.14
2023-06-19T01:43:17.206Z,169.89
2023-06-19T01:44:17.235Z,173.06
2023-06-19T01:45:17.243Z,173.73
2023-06-19T01:46:17.280Z,173.70
2023-06-19T01:47:17.243Z,175.06
2023-06-19T01:48:17.221Z,173.51
2023-06-19T01:49:17.258Z,174.15
2023-06-19T01:50:17.261Z,172.83
2023-06-19T01:51:17.259Z,173.94
2023-06-19T01:52:17.248Z,172.96
2023-06-19T01:53:17.283Z,172.96
2023-06-19T01:54:17.312Z,173.56
2023-06-19T01:55:17.311Z,174.65
2023-06-19T01:56:17.372Z,173.42
2023-06-19T01:57:17.339Z,172.36
2023-06-19T01:58:17.349Z,171.68
2023-06-19T01:59:17.414Z,170.87
2023-06-19T02:00:17.382Z,171.25
2023-06-19T02:01:17.397Z,172.05
2023-06-19T02:02:17.399Z,173.89
2023-06-19T02:03:17.567Z,175.00
2023-06-19T02:04:17.456Z,174.06
2023-06-19T02:05:17.487Z,172.34
2023-06-19T02:06:17.489Z,170.54
2023-06-19T02:07:17.481Z,171.59
2023-06-19T02:08:17.491Z,172.17
2023-06-19T02:09:17.482Z,170.21
2023-06-19T02:10:17.510Z,173.08
2023-06-19T02:11:17.536Z,169.05
2023-06-19T02:12:17.520Z,173.52
2023-06-19T02:13:17.532Z,168.74
2023-06-19T02:14:17.529Z,175.06
2023-06-19T02:15:17.501Z,170.57
2023-06-19T02:16:17.588Z,168.45
2023-06-19T02:17:17.521Z,166.72
2023-06-19T02:18:17.505Z,174.22
2023-06-19T02:19:17.520Z,172.76
2023-06-19T02:20:17.514Z,168.16
2023-06-19T02:21:17.524Z,173.79
2023-06-19T02:22:17.542Z,173.27
2023-06-19T02:23:17.557Z,171.67
2023-06-19T02:24:17.589Z,172.10
2023-06-19T02:25:17.562Z,172.91
2023-06-19T02:26:17.552Z,171.85
2023-06-19T02:27:17.588Z,171.37
2023-06-19T02:28:17.575Z,172.82
2023-06-19T02:29:17.577Z,171.79
2023-06-19T02:30:17.588Z,172.50
2023-06-19T02:31:17.579Z,169.41
2023-06-19T02:32:17.586Z,173.13
2023-06-19T02:33:17.552Z,174.08
2023-06-19T02:34:17.576Z,170.02
2023-06-19T02:35:17.584Z,171.90
2023-06-19T02:36:17.584Z,171.74
2023-06-19T02:37:17.589Z,171.83
2023-06-19T02:38:17.560Z,170.66
2023-06-19T02:39:17.566Z,169.24
2023-06-19T02:40:17.600Z,170.68
2023-06-19T02:41:17.617Z,170.76
2023-06-19T02:42:17.626Z,169.09
2023-06-19T02:43:17.600Z,169.49
2023-06-19T02:44:17.613Z,168.95
2023-06-19T02:45:17.588Z,170.56
2023-06-19T02:46:17.630Z,168.13
2023-06-19T02:47:17.641Z,170.89
2023-06-19T02:48:17.687Z,170.34
2023-06-19T02:49:17.611Z,170.18
2023-06-19T02:50:17.615Z,169.24
2023-06-19T02:51:17.629Z,172.67
2023-06-19T02:52:17.631Z,167.92
2023-06-19T02:53:17.646Z,171.97
2023-06-19T02:54:17.657Z,172.31
2023-06-19T02:55:17.653Z,170.24
2023-06-19T02:56:17.581Z,169.60
2023-06-19T02:57:17.629Z,170.48
2023-06-19T02:58:17.574Z,168.56
2023-06-19T02:59:17.596Z,166.87
2023-06-19T03:00:17.603Z,169.46
2023-06-19T03:01:17.619Z,168.86
2023-06-19T03:02:17.620Z,166.50
2023-06-19T03:03:17.658Z,168.08
2023-06-19T03:04:17.650Z,168.96
2023-06-19T03:05:17.606Z,169.76
2023-06-19T03:06:17.635Z,170.57
2023-06-19T03:07:17.562Z,170.32
2023-06-19T03:08:17.587Z,165.53
2023-06-19T03:09:17.588Z,168.06
2023-06-19T03:10:17.611Z,170.52
2023-06-19T03:11:17.601Z,170.42
2023-06-19T03:12:18.548Z,168.70
2023-06-19T03:13:17.590Z,165.91
2023-06-19T03:14:17.580Z,170.42
2023-06-19T03:15:17.595Z,168.08
2023-06-19T03:16:17.622Z,168.17
2023-06-19T03:17:17.576Z,165.63
2023-06-19T03:18:17.606Z,170.69
2023-06-19T03:19:17.580Z,169.45
2023-06-19T03:20:17.586Z,169.57
2023-06-19T03:21:17.589Z,167.71
2023-06-19T03:22:17.571Z,166.04
2023-06-19T03:23:17.565Z,167.54
2023-06-19T03:24:17.686Z,166.75
2023-06-19T03:25:17.654Z,168.33
2023-06-19T03:26:17.596Z,166.55
2023-06-19T03:27:17.651Z,164.82
2023-06-19T03:28:17.569Z,166.46
2023-06-19T03:29:17.600Z,164.22
2023-06-19T03:30:17.585Z,166.05
2023-06-19T03:31:17.607Z,166.33
2023-06-19T03:32:17.612Z,169.81
2023-06-19T03:33:17.615Z,165.57
2023-06-19T03:34:17.577Z,167.95
2023-06-19T03:35:17.621Z,168.74
2023-06-19T03:36:17.620Z,163.75
2023-06-19T03:37:17.658Z,166.68
2023-06-19T03:38:17.613Z,164.20
2023-06-19T03:39:17.650Z,166.65
2023-06-19T03:40:17.662Z,166.16
2023-06-19T03:41:17.626Z,167.25
2023-06-19T03:42:17.645Z,164.26
2023-06-19T03:43:17.655Z,168.05
2023-06-19T03:44:17.610Z,164.58
2023-06-19T03:45:17.654Z,167.60
2023-06-19T03:46:17.687Z,166.33
2023-06-19T03:47:17.636Z,168.04
2023-06-19T03:48:17.671Z,168.29
2023-06-19T03:49:17.653Z,168.18
2023-06-19T03:50:21.420Z,166.20
2023-06-19T03:51:17.629Z,166.27
2023-06-19T03:52:17.632Z,166.72
2023-06-19T03:53:17.636Z,166.14
2023-06-19T03:54:17.603Z,168.01
2023-06-19T03:55:17.618Z,167.12
2023-06-19T03:56:17.610Z,168.56
2023-06-19T03:57:17.604Z,168.92
2023-06-19T03:58:17.581Z,167.48
2023-06-19T03:59:17.594Z,162.57
2023-06-19T04:00:17.699Z,164.98
2023-06-19T04:01:17.605Z,165.91
2023-06-19T04:02:17.535Z,165.92
2023-06-19T04:03:18.127Z,165.75
2023-06-19T04:04:17.607Z,164.82
2023-06-19T04:05:17.525Z,159.33
2023-06-19T04:06:17.539Z,153.13
2023-06-19T04:07:17.526Z,146.68
2023-06-19T04:08:17.620Z,144.94
2023-06-19T04:09:17.513Z,138.87
2023-06-19T04:10:17.482Z,127.97
2023-06-19T04:11:17.542Z,118.56
2023-06-19T04:12:17.572Z,113.41
2023-06-19T04:13:17.685Z,110.89
2023-06-19T04:14:17.488Z,104.16
2023-06-19T04:15:17.497Z,94.24
2023-06-19T04:16:17.494Z,89.36
2023-06-19T04:17:17.458Z,82.83
2023-06-19T04:18:17.507Z,82.66
2023-06-19T04:19:17.480Z,78.86
2023-06-19T04:20:17.490Z,69.58
2023-06-19T04:21:17.434Z,60.92
2023-06-19T04:22:17.475Z,59.68
2023-06-19T04:23:17.432Z,55.35
2023-06-19T04:24:17.450Z,56.77
2023-06-19T04:25:17.375Z,49.73
2023-06-19T04:26:17.463Z,45.62
2023-06-19T04:27:17.375Z,40.71
2023-06-19T04:28:17.377Z,43.88
2023-06-19T04:29:17.374Z,42.31
2023-06-19T04:30:17.400Z,39.18
2023-06-19T04:31:17.399Z,36.62
2023-06-19T04:32:17.378Z,34.30
2023-06-19T04:33:17.585Z,31.26
2023-06-19T04:34:17.343Z,36.47
2023-06-19T04:35:17.349Z,34.78
2023-06-19T04:36:17.331Z,39.47
2023-06-19T04:37:17.368Z,33.34
2023-06-19T04:38:17.313Z,40.48
2023-06-19T04:39:17.346Z,39.97
2023-06-19T04:40:17.283Z,40.07
2023-06-19T04:41:17.338Z,45.81
2023-06-19T04:42:17.283Z,47.13
2023-06-19T04:43:17.267Z,47.05
2023-06-19T04:44:17.268Z,49.64
2023-06-19T04:45:17.277Z,48.05
2023-06-19T04:46:17.285Z,47.03
2023-06-19T04:47:17.276Z,55.48
2023-06-19T04:48:17.306Z,55.16
2023-06-19T04:49:17.285Z,52.55
2023-06-19T04:50:17.226Z,56.11
2023-06-19T04:51:17.208Z,58.61
2023-06-19T04:52:17.223Z,60.19
2023-06-19T04:53:17.302Z,57.93
2023-06-19T04:54:17.198Z,56.98
2023-06-19T04:55:17.163Z,60.22
2023-06-19T04:56:17.190Z,60.62
2023-06-19T04:57:17.200Z,61.93
2023-06-19T04:58:17.175Z,60.61
2023-06-19T04:59:17.161Z,63.11
2023-06-19T05:00:17.149Z,65.30
2023-06-19T05:01:17.187Z,64.63
2023-06-19T05:02:17.150Z,67.72
2023-06-19T05:03:17.163Z,66.54
2023-06-19T05:04:17.184Z,67.35
2023-06-19T05:05:17.118Z,66.95
2023-06-19T05:06:17.122Z,66.65
2023-06-19T05:07:17.194Z,70.86
2023-06-19T05:08:17.106Z,69.80
2023-06-19T05:09:17.112Z,68.96
2023-06-19T05:10:17.149Z,72.79
2023-06-19T05:11:17.122Z,73.41
2023-06-19T05:12:17.137Z,74.26
2023-06-19T05:14:07.993Z,25.00
2023-06-19T05:15:07.975Z,25.00
2023-06-19T05:16:08.022Z,25.00
2023-06-19T05:17:08.038Z,25.00
2023-06-19T05:18:07.998Z,25.00
2023-06-19T05:19:07.920Z,29.02
2023-06-19T05:20:07.932Z,30.29
2023-06-19T05:21:07.939Z,27.66
2023-06-19T05:22:07.930Z,28.12
2023-06-19T05:23:07.915Z,27.37
2023-06-19T05:24:08.046Z,30.55
2023-06-19T05:25:07.925Z,27.27
2023-06-19T05:26:07.947Z,29.61
2023-06-19T05:27:07.925Z,27.89
2023-06-19T05:28:07.888Z,29.95
2023-06-19T05:29:07.921Z,28.80
2023-06-19T05:30:07.883Z,25.00
2023-06-19T05:31:07.882Z,25.00
2023-06-19T05:32:07.898Z,25.31
2023-06-19T05:33:07.957Z,25.00
2023-06-19T05:34:08.110Z,30.51
2023-06-19T05:35:07.856Z,28.65
2023-06-19T05:36:07.865Z,30.18
2023-06-19T05:37:07.900Z,31.09
2023-06-19T05:38:07.893Z,34.12
2023-06-19T05:39:07.839Z,36.93
2023-06-19T05:40:07.860Z,36.68
2023-06-19T05:41:07.903Z,38.45
2023-06-19T05:42:07.809Z,43.62
2023-06-19T05:43:07.879Z,46.10
2023-06-19T05:44:07.841Z,45.87
2023-06-19T05:45:07.842Z,49.84
2023-06-19T05:46:07.810Z,53.38
2023-06-19T05:47:07.766Z,58.19
2023-06-19T05:48:07.856Z,60.90
2023-06-19T05:49:07.774Z,63.74
2023-06-19T05:50:07.718Z,66.45
2023-06-19T05:51:07.747Z,65.66
2023-06-19T05:52:07.712Z,73.00
2023-06-19T05:53:07.720Z,75.39
2023-06-19T05:54:07.733Z,76.08
2023-06-19T05:55:07.787Z,85.44
2023-06-19T05:56:07.713Z,89.61
2023-06-19T05:57:07.689Z,95.04
2023-06-19T05:58:07.678Z,117.67
2023-06-19T05:59:07.756Z,125.89
2023-06-19T06:00:07.730Z,129.55
2023-06-19T06:01:07.714Z,134.13
2023-06-19T06:02:07.640Z,137.39
2023-06-19T06:03:07.765Z,139.33
2023-06-19T06:04:07.710Z,144.71
2023-06-19T06:05:07.644Z,147.22
2023-06-19T06:06:07.649Z,150.58
2023-06-19T06:07:07.641Z,150.83
2023-06-19T06:08:07.657Z,153.75
2023-06-19T06:09:07.634Z,156.59
2023-06-19T06:10:07.613Z,162.95
2023-06-19T06:11:07.641Z,167.16
2023-06-19T06:12:07.638Z,169.15
2023-06-19T06:13:07.568Z,172.68
2023-06-19T06:14:07.661Z,173.68
2023-06-19T06:15:07.621Z,178.21
2023-06-19T06:16:07.725Z,178.28
2023-06-19T06:17:07.630Z,179.72
2023-06-19T06:18:07.649Z,184.04
2023-06-19T06:19:07.610Z,186.97
2023-06-19T06:20:07.613Z,187.53
2023-06-19T06:21:07.506Z,190.29
2023-06-19T06:22:07.560Z,195.10
2023-06-19T06:23:07.563Z,194.79
2023-06-19T06:24:07.533Z,196.47
2023-06-19T06:25:07.521Z,195.41
2023-06-19T06:26:07.578Z,204.60
2023-06-19T06:27:07.590Z,207.79
2023-06-19T06:28:07.584Z,210.20
2023-06-19T06:29:07.666Z,209.07
2023-06-19T06:30:07.668Z,210.97
2023-06-19T06:31:07.685Z,209.13
2023-06-19T06:32:07.732Z,210.53
2023-06-19T06:33:07.784Z,211.02
2023-06-19T06:34:07.800Z,208.24
2023-06-19T06:35:07.767Z,212.20
2023-06-19T06:36:09.010Z,210.51
2023-06-19T06:37:07.806Z,215.14
2023-06-19T06:38:07.815Z,212.00
2023-06-19T06:39:07.848Z,215.97
2023-06-19T06:40:07.853Z,212.80
2023-06-19T06:41:07.879Z,210.24
2023-06-19T06:42:07.995Z,206.69
2023-06-19T06:43:08.252Z,201.02
2023-06-19T06:44:07.970Z,203.89
2023-06-19T06:45:08.067Z,199.84
2023-06-19T06:46:08.041Z,197.12
2023-06-19T06:47:08.090Z,192.14
2023-06-19T06:48:08.232Z,188.17
2023-06-19T06:49:08.131Z,177.90
2023-06-19T06:50:08.186Z,174.52
2023-06-19T06:51:08.224Z,167.35
2023-06-19T06:52:08.546Z,160.71
2023-06-19T06:53:08.324Z,153.70
2023-06-19T06:54:08.452Z,149.75
2023-06-19T06:55:08.434Z,146.71
2023-06-19T06:56:08.464Z,140.34
2023-06-19T06:57:08.522Z,143.65
2023-06-19T06:58:08.552Z,137.12
2023-06-19T06:59:08.572Z,132.45
2023-06-19T07:00:08.667Z,132.72
2023-06-19T07:01:08.853Z,128.36
2023-06-19T07:02:08.789Z,128.21
2023-06-19T07:03:08.976Z,123.60
2023-06-19T07:04:08.908Z,120.01
2023-06-19T07:05:08.921Z,115.92
2023-06-19T07:06:08.958Z,118.99
2023-06-19T07:07:09.003Z,115.07
2023-06-19T07:08:09.189Z,116.93
2023-06-19T07:09:09.159Z,114.76
2023-06-19T07:10:09.239Z,111.99
2023-06-19T07:11:09.269Z,111.67
2023-06-19T07:12:09.331Z,105.44
2023-06-19T07:13:09.432Z,105.28
2023-06-19T07:14:09.482Z,103.73
2023-06-19T07:15:09.504Z,98.97
2023-06-19T07:16:09.639Z,101.63
2023-06-19T07:17:09.752Z,96.42
2023-06-19T07:18:09.745Z,94.81
2023-06-19T07:19:09.742Z,89.10
2023-06-19T07:20:09.853Z,86.34
2023-06-19T07:21:09.897Z,79.56
2023-06-19T07:22:09.968Z,80.06
2023-06-19T07:23:09.993Z,88.90
2023-06-19T07:24:10.108Z,92.57
2023-06-19T07:25:10.118Z,95.83
2023-06-19T07:26:10.183Z,96.09
2023-06-19T07:27:10.221Z,91.66
2023-06-19T07:28:10.237Z,95.29
2023-06-19T07:29:10.317Z,98.94
2023-06-19T07:30:10.352Z,101.21
2023-06-19T07:31:10.432Z,98.64
2023-06-19T07:32:10.548Z,102.22
2023-06-19T07:33:10.536Z,98.14
2023-06-19T07:34:10.599Z,101.81
2023-06-19T07:35:10.598Z,101.05
2023-06-19T07:36:10.685Z,104.52
2023-06-19T07:37:10.756Z,103.77
2023-06-19T07:38:10.833Z,101.07
2023-06-19T07:39:10.833Z,103.81
2023-06-19T07:40:10.944Z,106.38
2023-06-19T07:41:11.026Z,113.45
2023-06-19T07:42:11.040Z,109.66
2023-06-19T07:43:11.079Z,109.93
2023-06-19T07:44:11.188Z,111.64
2023-06-19T07:45:11.187Z,109.05
2023-06-19T07:46:11.311Z,110.88
2023-06-19T07:47:11.279Z,107.26
2023-06-19T07:48:11.481Z,104.26
2023-06-19T07:49:11.447Z,107.53
2023-06-19T07:50:11.508Z,109.53
2023-06-19T07:51:11.577Z,108.11
2023-06-19T07:52:11.601Z,110.16
2023-06-19T07:53:11.713Z,105.00
2023-06-19T07:54:11.751Z,109.68
2023-06-19T07:55:11.784Z,109.32
2023-06-19T07:56:11.918Z,113.52
2023-06-19T07:57:11.942Z,115.32
2023-06-19T07:58:11.980Z,114.12
2023-06-19T07:59:12.054Z,115.08
2023-06-19T08:00:12.117Z,118.11
2023-06-19T08:01:12.153Z,116.93
2023-06-19T08:02:12.316Z,113.90
2023-06-19T08:03:12.362Z,116.76
2023-06-19T08:04:12.401Z,112.45
2023-06-19T08:05:12.521Z,110.31
2023-06-19T08:06:12.444Z,112.81
2023-06-19T08:07:12.518Z,111.43
2023-06-19T08:08:12.612Z,109.26
2023-06-19T08:09:12.624Z,107.36
2023-06-19T08:10:14.459Z,106.29
2023-06-19T08:11:13.684Z,106.42
2023-06-19T08:12:12.729Z,105.67
2023-06-19T08:13:12.691Z,101.09
2023-06-19T08:14:12.673Z,107.99
2023-06-19T08:15:12.682Z,103.58
2023-06-19T08:16:12.687Z,106.00
2023-06-19T08:17:12.742Z,105.39
2023-06-19T08:18:12.712Z,102.65
2023-06-19T08:19:12.730Z,108.81
2023-06-19T08:20:12.761Z,111.51
2023-06-19T08:21:12.829Z,111.91
2023-06-19T08:22:12.873Z,114.24
2023-06-19T08:23:12.877Z,111.70
2023-06-19T08:24:12.995Z,108.98
2023-06-19T08:25:13.047Z,112.64
2023-06-19T08:26:13.297Z,118.36
2023-06-19T08:27:13.152Z,118.71
2023-06-19T08:28:13.205Z,112.15
2023-06-19T08:29:13.305Z,117.61
2023-06-19T08:30:13.345Z,124.18
2023-06-19T08:31:13.389Z,125.49
2023-06-19T08:32:13.436Z,125.54
2023-06-19T08:33:13.546Z,122.74
2023-06-19T08:34:13.564Z,116.40
2023-06-19T08:35:13.586Z,117.25
2023-06-19T08:36:13.669Z,121.67
2023-06-19T08:37:13.750Z,130.43
2023-06-19T08:38:13.805Z,134.36
2023-06-19T08:39:13.863Z,126.57
2023-06-19T08:40:13.909Z,133.36
2023-06-19T08:41:13.972Z,129.05
2023-06-19T08:42:14.289Z,125.58
2023-06-19T08:43:14.086Z,128.68
2023-06-19T08:44:14.204Z,121.91
2023-06-19T08:45:14.218Z,120.63
2023-06-19T08:46:14.278Z,122.80
2023-06-19T08:47:14.312Z,135.68
2023-06-19T08:48:14.447Z,133.92
2023-06-19T08:49:14.443Z,136.82
2023-06-19T08:50:14.617Z,138.92
2023-06-19T08:51:14.553Z,138.37
2023-06-19T08:52:14.610Z,136.03
2023-06-19T08:53:14.678Z,133.56
2023-06-19T08:54:14.818Z,131.88
2023-06-19T08:55:14.803Z,140.60
2023-06-19T08:56:14.829Z,137.47
2023-06-19T08:57:14.921Z,134.87
2023-06-19T08:58:14.964Z,139.07
2023-06-19T08:59:15.013Z,141.42
2023-06-19T09:00:15.078Z,146.00
2023-06-19T09:01:15.155Z,150.43
2023-06-19T09:02:15.234Z,150.95
2023-06-19T09:03:15.389Z,155.41
2023-06-19T09:04:15.811Z,154.13
2023-06-19T09:05:15.384Z,160.78
2023-06-19T09:06:15.530Z,160.89
2023-06-19T09:07:15.602Z,159.72
2023-06-19T09:08:15.570Z,160.42
2023-06-19T09:09:15.634Z,156.22
2023-06-19T09:10:15.712Z,154.01
2023-06-19T09:11:15.764Z,160.90
2023-06-19T09:12:15.825Z,160.88
2023-06-19T09:13:15.835Z,159.15
2023-06-19T09:14:15.935Z,160.87
2023-06-19T09:15:16.007Z,159.70
2023-06-19T09:16:16.067Z,165.67
2023-06-19T09:17:16.111Z,159.33
2023-06-19T09:18:16.186Z,161.44
2023-06-19T09:19:16.240Z,160.27
2023-06-19T09:20:16.277Z,162.09
2023-06-19T09:21:16.337Z,169.62
2023-06-19T09:22:16.415Z,173.88
2023-06-19T09:23:16.449Z,169.14
2023-06-19T09:24:16.529Z,169.78
2023-06-19T09:25:16.583Z,175.50
2023-06-19T09:26:16.626Z,176.15
2023-06-19T09:27:16.684Z,173.77
2023-06-19T09:28:16.738Z,178.58
2023-06-19T09:29:18.543Z,177.64
2023-06-19T09:30:16.776Z,181.86
2023-06-19T09:31:16.783Z,179.79
2023-06-19T09:32:16.788Z,176.77
2023-06-19T09:33:16.872Z,170.29
2023-06-19T09:34:16.821Z,172.58
2023-06-19T09:35:16.752Z,172.19
2023-06-19T09:36:16.761Z,173.34
2023-06-19T09:37:16.752Z,172.95
2023-06-19T09:38:16.720Z,172.54
2023-06-19T09:39:16.727Z,171.28
2023-06-19T09:40:16.740Z,172.14
2023-06-19T09:41:16.691Z,171.53
2023-06-19T09:42:16.684Z,176.83
2023-06-19T09:43:16.713Z,177.04
2023-06-19T09:44:16.683Z,175.95
2023-06-19T09:45:16.756Z,175.16
2023-06-19T09:46:16.684Z,165.03
2023-06-19T09:47:16.727Z,169.56
2023-06-19T09:48:16.751Z,174.12
2023-06-19T09:49:16.718Z,175.53
2023-06-19T09:50:16.698Z,171.54
2023-06-19T09:51:16.633Z,165.33
2023-06-19T09:52:16.637Z,172.36
2023-06-19T09:53:16.595Z,176.71
2023-06-19T09:54:16.597Z,175.08
2023-06-19T09:55:16.651Z,180.75
2023-06-19T09:56:16.651Z,179.81
2023-06-19T09:57:16.655Z,176.31
2023-06-19T09:58:16.625Z,178.53
2023-06-19T09:59:16.698Z,176.44
2023-06-19T10:00:16.758Z,173.11
2023-06-19T10:01:16.817Z,176.67
2023-06-19T10:02:16.852Z,168.77
2023-06-19T10:03:17.011Z,175.78
2023-06-19T10:04:17.005Z,178.79
2023-06-19T10:05:17.058Z,170.64
2023-06-19T10:06:17.128Z,170.22
2023-06-19T10:07:17.159Z,169.27
2023-06-19T10:08:17.239Z,170.52
2023-06-19T10:09:17.294Z,174.77
2023-06-19T10:10:17.362Z,174.73
2023-06-19T10:11:17.419Z,175.30
2023-06-19T10:12:17.479Z,172.69
2023-06-19T10:13:17.536Z,175.62
2023-06-19T10:14:17.586Z,173.12
2023-06-19T10:15:17.654Z,172.19
2023-06-19T10:16:17.699Z,165.12
2023-06-19T10:17:17.809Z,171.36
2023-06-19T10:18:17.851Z,176.96
2023-06-19T10:19:17.858Z,172.20
2023-06-19T10:20:17.891Z,169.65
2023-06-19T10:21:17.970Z,166.98
2023-06-19T10:22:18.053Z,168.46
2023-06-19T10:23:18.097Z,168.93
2023-06-19T10:24:18.127Z,173.57
2023-06-19T10:25:18.175Z,169.91
2023-06-19T10:26:18.236Z,176.75
2023-06-19T10:27:18.293Z,171.37
2023-06-19T10:28:18.333Z,175.17
2023-06-19T10:29:18.395Z,168.43
2023-06-19T10:30:18.563Z,169.98
2023-06-19T10:31:18.518Z,168.49
2023-06-19T10:32:18.588Z,170.24
2023-06-19T10:33:18.647Z,170.31
2023-06-19T10:34:18.678Z,171.02
2023-06-19T10:35:18.766Z,171.91
2023-06-19T10:36:18.850Z,172.27
2023-06-19T10:37:18.822Z,177.08
2023-06-19T10:38:18.882Z,171.13
2023-06-19T10:39:19.003Z,174.23
2023-06-19T10:40:18.991Z,172.22
2023-06-19T10:41:19.063Z,172.29
2023-06-19T10:42:19.093Z,170.73
2023-06-19T10:43:19.157Z,166.32
2023-06-19T10:44:19.220Z,172.07
2023-06-19T10:45:19.272Z,170.68
2023-06-19T10:46:19.358Z,169.68
2023-06-19T10:47:19.452Z,166.84
2023-06-19T10:48:19.465Z,173.59
2023-06-19T10:49:19.465Z,175.51
2023-06-19T10:50:19.577Z,173.36
2023-06-19T10:51:19.578Z,174.54
2023-06-19T10:52:19.618Z,163.17
2023-06-19T10:53:19.710Z,163.38
2023-06-19T10:54:19.729Z,166.70
2023-06-19T10:55:19.855Z,172.80
2023-06-19T10:56:19.859Z,170.40
2023-06-19T10:57:19.967Z,170.46
2023-06-19T10:58:19.976Z,167.46
2023-06-19T10:59:19.993Z,164.82
2023-06-19T11:00:20.045Z,165.09
2023-06-19T11:01:20.081Z,168.54
2023-06-19T11:02:20.253Z,166.10
2023-06-19T11:03:20.351Z,160.91
2023-06-19T11:04:20.298Z,163.31
2023-06-19T11:05:20.327Z,167.86
2023-06-19T11:06:20.393Z,167.30
2023-06-19T11:07:20.497Z,163.94
2023-06-19T11:08:20.466Z,155.85
2023-06-19T11:09:20.593Z,152.96
2023-06-19T11:10:20.761Z,156.00
2023-06-19T11:11:20.646Z,154.73
2023-06-19T11:12:20.710Z,160.39
2023-06-19T11:13:20.785Z,161.80
2023-06-19T11:14:20.804Z,168.14
2023-06-19T11:15:20.865Z,166.58
2023-06-19T11:16:20.928Z,162.55
2023-06-19T11:17:21.096Z,163.24
2023-06-19T11:18:21.009Z,159.94
2023-06-19T11:19:21.102Z,160.70
2023-06-19T11:20:21.224Z,158.09
2023-06-19T11:21:21.170Z,158.34
2023-06-19T11:22:21.199Z,149.49
2023-06-19T11:23:21.302Z,161.92
2023-06-19T11:24:21.372Z,163.96
2023-06-19T11:25:21.356Z,164.77
2023-06-19T11:26:21.394Z,166.93
2023-06-19T11:27:21.426Z,166.20
2023-06-19T11:28:21.472Z,167.39
2023-06-19T11:29:21.565Z,169.81
2023-06-19T11:30:21.741Z,153.33
2023-06-19T11:31:21.721Z,164.50
2023-06-19T11:32:21.757Z,155.75
2023-06-19T11:33:21.718Z,162.51
2023-06-19T11:34:24.667Z,163.53
2023-06-19T11:35:21.793Z,161.44
2023-06-19T11:36:21.743Z,158.76
2023-06-19T11:37:21.794Z,149.89
2023-06-19T11:38:21.738Z,146.23
2023-06-19T11:39:21.770Z,142.01
2023-06-19T11:40:21.879Z,145.01
2023-06-19T11:41:21.723Z,151.77
2023-06-19T11:42:21.770Z,149.83
2023-06-19T11:43:21.717Z,150.28
2023-06-19T11:44:21.729Z,150.18
2023-06-19T11:45:21.805Z,146.99
2023-06-19T11:46:21.779Z,153.52
2023-06-19T11:47:21.675Z,155.66
2023-06-19T11:48:21.657Z,151.99
2023-06-19T11:49:21.673Z,150.10
2023-06-19T11:50:23.375Z,141.29
2023-06-19T11:51:21.704Z,141.57
2023-06-19T11:52:21.690Z,143.49
2023-06-19T11:53:21.606Z,145.32
2023-06-19T11:54:21.696Z,145.68
2023-06-19T11:55:21.673Z,142.92
2023-06-19T11:56:21.702Z,143.52
2023-06-19T11:57:21.602Z,138.24
2023-06-19T11:58:21.601Z,140.98
2023-06-19T11:59:21.582Z,144.52
2023-06-19T12:00:21.849Z,151.84
2023-06-19T12:01:21.576Z,154.50
2023-06-19T12:02:21.645Z,151.86
2023-06-19T12:03:21.710Z,147.45
2023-06-19T12:04:21.703Z,148.49
2023-06-19T12:05:21.588Z,151.20
2023-06-19T12:06:21.610Z,149.75
2023-06-19T12:07:21.547Z,149.60
2023-06-19T12:08:21.505Z,151.99
2023-06-19T12:09:21.557Z,148.50
2023-06-19T12:10:21.781Z,145.45
2023-06-19T12:11:21.510Z,141.67
2023-06-19T12:12:21.512Z,145.80
2023-06-19T12:13:21.500Z,143.58
2023-06-19T12:14:21.479Z,144.39
2023-06-19T12:15:21.497Z,153.63
2023-06-19T12:16:21.641Z,153.24
2023-06-19T12:17:21.500Z,154.68
2023-06-19T12:18:21.515Z,152.81
2023-06-19T12:19:21.606Z,140.37
2023-06-19T12:20:21.544Z,142.26
2023-06-19T12:21:32.766Z,147.01
2023-06-19T12:22:22.468Z,147.20
2023-06-19T12:23:21.449Z,147.50
2023-06-19T12:24:21.475Z,148.09
2023-06-19T12:25:21.502Z,150.63
2023-06-19T12:26:21.514Z,154.42
2023-06-19T12:27:21.408Z,151.98
2023-06-19T12:28:21.424Z,155.82
2023-06-19T12:29:21.442Z,151.09
2023-06-19T12:30:21.478Z,153.38
2023-06-19T12:31:21.567Z,151.07
2023-06-19T12:32:21.435Z,153.32
2023-06-19T12:33:21.358Z,149.65